Time;durP1;ratioP1;P1;durP2;ratioP2;P2;SDS_P1;SDS_P2;PMS_P1;PMS_P2;Temp;Humidity;BMP_temperature;BMP_pressure;BME280_temperature;BME280_humidity;BME280_pressure;Samples;Min_cycle;Max_cycle;Signal;HPM_P1;HPM_P2
2023/07/27 00:01:14;;;;;;;16.10;14.63;;;;;;;19.33;80.44;92224.81;5049900;28;20223;-77
2023/07/27 00:03:39;;;;;;;15.37;13.90;;;;;;;19.18;81.25;92228.97;5050503;28;20214;-78
2023/07/27 00:06:05;;;;;;;14.53;13.23;;;;;;;19.10;81.44;92202.66;5049939;28;20231;-76
2023/07/27 00:08:30;;;;;;;14.43;13.23;;;;;;;19.15;82.34;92234.19;5050698;28;20248;-77
2023/07/27 00:10:55;;;;;;;16.73;15.03;;;;;;;18.98;83.41;92237.13;5049549;28;20314;-77
2023/07/27 00:13:21;;;;;;;17.50;15.73;;;;;;;18.88;85.51;92229.69;5050413;28;20211;-78
2023/07/27 00:15:46;;;;;;;17.53;15.97;;;;;;;18.97;85.40;92235.59;5049540;28;21386;-78
2023/07/27 00:18:12;;;;;;;18.40;16.47;;;;;;;18.92;86.59;92241.13;5050113;28;20195;-78
2023/07/27 00:20:37;;;;;;;17.13;15.53;;;;;;;18.86;86.99;92234.56;5049557;28;20226;-77
2023/07/27 00:23:02;;;;;;;18.03;16.43;;;;;;;18.77;86.35;92245.28;5049842;28;20251;-79
2023/07/27 00:25:28;;;;;;;17.40;15.73;;;;;;;18.56;87.31;92249.22;5049791;28;20258;-77
2023/07/27 00:27:53;;;;;;;15.13;13.77;;;;;;;18.47;86.88;92243.28;5049767;28;20206;-77
2023/07/27 00:30:18;;;;;;;16.30;14.80;;;;;;;18.48;86.70;92232.38;5049504;28;20264;-79
2023/07/27 00:32:44;;;;;;;15.60;14.03;;;;;;;18.39;86.74;92223.03;5054137;28;20212;-77
2023/07/27 00:35:09;;;;;;;17.03;15.53;;;;;;;18.43;85.95;92221.25;5049566;28;21743;-79
2023/07/27 00:37:34;;;;;;;16.30;14.80;;;;;;;18.45;85.29;92232.28;5050127;28;20197;-77
2023/07/27 00:40:00;;;;;;;15.67;14.37;;;;;;;18.29;85.58;92223.50;5049590;28;20252;-78
2023/07/27 00:42:25;;;;;;;15.93;14.43;;;;;;;18.22;85.67;92212.72;5049548;28;20188;-78
2023/07/27 00:44:50;;;;;;;14.57;13.07;;;;;;;18.32;84.70;92228.13;5049246;28;20220;-78
2023/07/27 00:47:16;;;;;;;15.20;13.90;;;;;;;18.14;85.48;92226.81;5049554;28;20182;-78
2023/07/27 00:49:41;;;;;;;15.37;14.10;;;;;;;18.01;85.75;92231.34;5049313;28;20276;-78
2023/07/27 00:52:08;;;;;;;15.23;13.87;;;;;;;18.10;84.74;92221.41;5049504;28;20217;-78
2023/07/27 00:54:34;;;;;;;14.23;13.03;;;;;;;17.92;85.58;92230.72;5049092;28;20193;-75
2023/07/27 00:57:00;;;;;;;13.43;12.27;;;;;;;17.91;84.59;92209.91;5049671;28;20190;-79
2023/07/27 00:59:27;;;;;;;15.10;13.43;;;;;;;17.93;83.95;92215.63;5049510;28;20186;-77
2023/07/27 01:01:53;;;;;;;14.63;13.43;;;;;;;17.93;83.74;92210.34;5049115;28;20232;-76
2023/07/27 01:04:19;;;;;;;14.33;13.13;;;;;;;18.17;82.74;92218.22;5049549;28;20218;-77
2023/07/27 01:06:44;;;;;;;14.30;13.10;;;;;;;17.85;81.63;92203.31;5049086;28;20229;-79
2023/07/27 01:09:10;;;;;;;14.77;13.30;;;;;;;17.91;81.35;92215.97;5048521;28;20212;-78
2023/07/27 01:12:16;;;;;;;12.77;11.87;;;;;;;17.90;80.37;92221.59;5048854;28;20217;-78
2023/07/27 01:15:06;;;;;;;11.53;10.53;;;;;;;17.96;79.42;92233.47;5036196;28;20237;-77
2023/07/27 01:17:42;;;;;;;12.13;11.23;;;;;;;17.84;80.35;92238.75;5029749;28;20250;-78
2023/07/27 01:20:15;;;;;;;11.73;10.63;;;;;;;17.78;80.63;92237.41;5033935;28;20260;-78
2023/07/27 01:23:18;;;;;;;11.17;10.17;;;;;;;17.79;80.00;92246.91;5048963;28;20179;-76
2023/07/27 01:26:02;;;;;;;11.50;10.70;;;;;;;17.63;81.18;92239.63;5048860;28;20277;-77
2023/07/27 01:28:55;;;;;;;10.27;9.47;;;;;;;17.81;80.16;92250.75;5038020;28;20177;-78
2023/07/27 01:31:26;;;;;;;10.77;9.83;;;;;;;17.53;80.12;92255.91;5048441;28;20215;-78
2023/07/27 01:34:03;;;;;;;9.87;9.37;;;;;;;17.56;79.77;92249.97;5049341;28;20225;-77
2023/07/27 01:36:34;;;;;;;9.47;8.93;;;;;;;17.65;80.21;92249.09;5055586;28;20228;-79
2023/07/27 01:39:03;;;;;;;9.77;9.23;;;;;;;17.29;81.30;92245.28;5054459;28;20190;-77
2023/07/27 01:41:31;;;;;;;10.67;10.00;;;;;;;17.36;81.71;92252.66;5048796;28;20217;-76
2023/07/27 01:43:59;;;;;;;9.27;8.67;;;;;;;17.28;82.13;92256.94;5049361;28;20269;-75
2023/07/27 01:46:26;;;;;;;10.87;10.27;;;;;;;17.22;81.56;92263.53;5048740;28;20210;-80
2023/07/27 01:48:54;;;;;;;10.13;9.43;;;;;;;17.39;81.21;92249.38;5049292;28;20185;-79
2023/07/27 01:51:21;;;;;;;11.10;10.30;;;;;;;17.42;81.30;92261.91;5048721;28;20280;-79
2023/07/27 01:53:47;;;;;;;10.10;9.50;;;;;;;17.26;81.13;92255.75;5049229;28;20213;-79
2023/07/27 01:56:14;;;;;;;10.40;9.80;;;;;;;17.29;81.44;92255.09;5049115;28;20313;-79
2023/07/27 01:58:41;;;;;;;9.80;9.30;;;;;;;17.08;81.28;92260.44;5050512;28;20190;-78
2023/07/27 02:01:07;;;;;;;9.93;9.13;;;;;;;17.22;81.42;92274.09;5061448;28;20221;-79
2023/07/27 02:03:33;;;;;;;9.60;9.00;;;;;;;17.20;80.42;92264.94;5056159;28;20218;-78
2023/07/27 02:06:00;;;;;;;10.60;10.03;;;;;;;17.31;80.57;92287.19;5052414;28;20290;-81
2023/07/27 02:08:26;;;;;;;10.93;10.30;;;;;;;17.14;80.31;92290.78;5052739;28;20171;-78
2023/07/27 02:17:26;;;;;;;12.23;11.37;;;;;;;17.23;80.54;92298.63;5052359;28;20296;-79
2023/07/27 02:19:57;;;;;;;11.53;10.73;;;;;;;17.14;80.91;92290.78;5048719;28;20222;-78
2023/07/27 02:22:25;;;;;;;13.73;12.60;;;;;;;17.22;80.10;92302.34;5032353;28;20171;-79
2023/07/27 02:24:50;;;;;;;12.37;11.47;;;;;;;17.22;80.21;92308.38;5034472;28;20224;-77
2023/07/27 02:27:16;;;;;;;13.47;12.23;;;;;;;17.11;80.27;92301.97;5052318;28;20182;-77
2023/07/27 02:29:41;;;;;;;13.07;12.23;;;;;;;17.29;80.02;92311.25;5051779;28;20249;-79
2023/07/27 02:32:07;;;;;;;12.00;11.20;;;;;;;17.33;79.70;92314.78;5052327;28;20214;-80
2023/07/27 02:34:32;;;;;;;13.27;12.27;;;;;;;17.19;79.48;92292.44;5051525;28;20178;-80
2023/07/27 02:36:57;;;;;;;14.50;13.37;;;;;;;17.45;79.11;92320.13;5052590;28;20209;-81
2023/07/27 02:39:23;;;;;;;14.37;13.27;;;;;;;17.50;78.37;92314.66;5051937;28;20209;-79
2023/07/27 02:41:48;;;;;;;14.77;13.57;;;;;;;17.38;78.03;92316.44;5051631;28;20221;-83
2023/07/27 02:44:14;;;;;;;14.73;13.63;;;;;;;17.31;77.16;92311.69;5051677;28;20204;-82
2023/07/27 02:46:39;;;;;;;14.87;13.77;;;;;;;17.30;77.20;92312.81;5051629;28;20258;-76
2023/07/27 02:49:04;;;;;;;13.90;12.70;;;;;;;17.21;76.44;92321.91;5053268;28;20250;-74
2023/07/27 02:51:30;;;;;;;14.97;13.70;;;;;;;17.17;76.02;92327.06;5050693;28;20218;-75
2023/07/27 02:53:55;;;;;;;15.13;13.83;;;;;;;17.27;76.47;92325.88;5054381;28;20229;-74
2023/07/27 02:56:20;;;;;;;14.70;13.40;;;;;;;17.04;76.12;92330.72;5055865;28;20802;-74
2023/07/27 02:58:46;;;;;;;13.33;12.33;;;;;;;17.07;74.96;92326.69;5052008;28;20186;-75
2023/07/27 03:01:11;;;;;;;13.80;12.80;;;;;;;16.92;76.33;92320.16;5051521;28;20236;-74
2023/07/27 03:03:37;;;;;;;13.53;12.53;;;;;;;16.94;76.00;92335.63;5052075;28;20185;-74
2023/07/27 03:06:03;;;;;;;13.40;12.40;;;;;;;17.22;75.33;92329.50;5051090;28;20230;-75
2023/07/27 03:08:29;;;;;;;13.23;12.03;;;;;;;16.97;74.48;92335.00;5084267;28;20178;-74
2023/07/27 03:11:00;;;;;;;13.27;12.47;;;;;;;16.93;74.83;92342.81;5038207;28;20253;-74
2023/07/27 03:13:26;;;;;;;12.87;11.90;;;;;;;16.88;74.48;92332.44;5030678;28;20207;-75
2023/07/27 03:15:51;;;;;;;14.23;13.17;;;;;;;16.99;75.37;92346.00;5042630;28;20244;-73
2023/07/27 03:18:17;;;;;;;13.87;12.97;;;;;;;16.95;74.94;92347.75;5051431;28;20193;-74
2023/07/27 03:20:43;;;;;;;12.40;11.50;;;;;;;16.72;74.20;92336.75;5051067;28;20234;-75
2023/07/27 03:23:09;;;;;;;13.00;12.13;;;;;;;16.90;74.03;92343.41;5051045;28;20186;-74
2023/07/27 03:25:36;;;;;;;13.03;12.13;;;;;;;16.82;73.26;92346.91;5050941;28;20226;-75
2023/07/27 03:28:04;;;;;;;13.20;12.30;;;;;;;16.78;71.73;92356.56;5051127;28;20191;-74
2023/07/27 03:30:29;;;;;;;13.63;12.67;;;;;;;16.81;70.87;92358.53;5051209;28;20252;-74
2023/07/27 03:32:55;;;;;;;14.20;13.07;;;;;;;16.74;71.68;92350.41;5050788;28;20214;-74
2023/07/27 03:35:20;;;;;;;12.43;11.30;;;;;;;16.68;69.62;92345.63;5050683;28;20222;-74
2023/07/27 03:37:46;;;;;;;12.60;11.80;;;;;;;16.65;68.91;92328.59;5051851;28;20190;-75
2023/07/27 03:40:11;;;;;;;11.50;10.80;;;;;;;16.77;68.13;92338.41;5044645;28;20227;-74
2023/07/27 03:42:36;;;;;;;12.07;11.20;;;;;;;16.77;67.20;92355.03;5031221;28;20217;-74
2023/07/27 03:45:02;;;;;;;11.33;10.33;;;;;;;16.85;65.42;92354.19;5035663;28;20230;-74
2023/07/27 03:47:27;;;;;;;11.53;10.83;;;;;;;16.90;66.42;92367.16;5050624;28;20205;-73
2023/07/27 03:49:53;;;;;;;9.67;9.17;;;;;;;16.92;64.78;92357.06;5050690;28;20240;-74
2023/07/27 03:52:18;;;;;;;10.67;9.87;;;;;;;16.85;64.52;92370.00;5050311;28;20232;-75
2023/07/27 03:54:43;;;;;;;9.17;8.67;;;;;;;16.86;63.36;92366.25;5050214;28;20245;-73
2023/07/27 03:57:09;;;;;;;9.07;8.47;;;;;;;16.84;62.97;92360.53;5050721;28;20262;-73
2023/07/27 03:59:34;;;;;;;11.00;10.10;;;;;;;16.94;65.28;92378.63;5050308;28;20186;-74
2023/07/27 04:02:00;;;;;;;10.33;9.73;;;;;;;17.03;64.53;92381.94;5050535;28;20197;-73
2023/07/27 04:04:25;;;;;;;9.93;9.43;;;;;;;16.86;64.26;92362.84;5050417;28;20249;-73
2023/07/27 04:06:50;;;;;;;10.53;9.90;;;;;;;17.12;65.33;92393.19;5050034;28;20224;-74
2023/07/27 04:09:16;;;;;;;10.70;9.77;;;;;;;17.14;64.95;92396.28;5050759;28;20217;-74
2023/07/27 04:11:41;;;;;;;10.30;9.80;;;;;;;17.18;62.16;92402.47;5049515;28;20244;-74
2023/07/27 04:14:07;;;;;;;8.83;8.33;;;;;;;17.11;61.98;92410.13;5050425;28;20185;-73
2023/07/27 04:16:32;;;;;;;10.23;9.73;;;;;;;17.07;63.72;92405.81;5050107;28;20225;-75
2023/07/27 04:18:57;;;;;;;10.23;9.63;;;;;;;17.16;66.29;92411.81;5033076;28;20204;-75
2023/07/27 04:21:23;;;;;;;9.77;9.27;;;;;;;17.32;66.30;92408.22;5033564;28;20223;-74
2023/07/27 04:23:49;;;;;;;9.67;8.90;;;;;;;17.17;66.07;92411.47;5030705;28;20195;-75
2023/07/27 04:26:14;;;;;;;10.17;9.67;;;;;;;16.99;67.48;92419.84;5044283;28;20244;-73
2023/07/27 04:28:39;;;;;;;10.80;10.20;;;;;;;17.12;66.98;92413.56;5050475;28;20178;-73
2023/07/27 04:31:05;;;;;;;10.87;10.10;;;;;;;17.07;66.90;92425.06;5049597;28;20222;-74
2023/07/27 04:33:30;;;;;;;10.67;9.97;;;;;;;16.91;66.28;92418.81;5050080;28;20742;-74
2023/07/27 04:35:59;;;;;;;10.43;9.87;;;;;;;16.88;65.97;92440.56;5045098;28;20238;-74
2023/07/27 04:38:24;;;;;;;10.50;9.70;;;;;;;16.61;66.25;92450.78;5050106;28;20201;-74
2023/07/27 04:40:51;;;;;;;10.23;9.60;;;;;;;16.72;65.05;92438.78;5049538;28;20246;-74
2023/07/27 04:43:16;;;;;;;10.20;9.70;;;;;;;16.66;64.09;92421.63;5049547;28;20193;-73
2023/07/27 04:45:42;;;;;;;9.97;9.03;;;;;;;17.24;64.18;92451.31;5049389;28;20277;-74
2023/07/27 04:48:07;;;;;;;10.47;9.67;;;;;;;17.30;64.37;92454.53;5049500;28;20186;-73
2023/07/27 04:50:33;;;;;;;9.33;8.83;;;;;;;17.23;64.05;92449.75;5049181;28;20218;-74
2023/07/27 04:52:59;;;;;;;9.67;9.00;;;;;;;16.77;63.73;92457.84;5046252;28;20226;-71
2023/07/27 04:55:24;;;;;;;9.70;9.20;;;;;;;16.51;65.08;92474.88;5037744;28;20225;-71
2023/07/27 04:57:49;;;;;;;8.80;8.40;;;;;;;16.71;65.59;92467.03;5047784;28;20194;-73
2023/07/27 05:00:15;;;;;;;9.67;9.17;;;;;;;16.69;64.81;92479.75;5080473;28;20230;-72
2023/07/27 05:02:40;;;;;;;9.33;8.77;;;;;;;16.68;64.92;92478.22;5043369;28;20186;-74
2023/07/27 05:05:06;;;;;;;9.77;9.27;;;;;;;16.62;65.70;92471.59;5047902;28;20315;-71
2023/07/27 05:07:31;;;;;;;9.00;8.50;;;;;;;16.73;66.76;92493.84;5048035;28;20201;-75
2023/07/27 05:09:57;;;;;;;9.13;8.63;;;;;;;16.65;66.69;92501.78;5043724;28;20232;-69
2023/07/27 05:12:22;;;;;;;9.33;8.47;;;;;;;16.69;66.64;92502.69;5025661;28;20282;-68
2023/07/27 05:14:47;;;;;;;9.00;8.50;;;;;;;16.62;65.41;92512.97;5032596;28;20198;-70
2023/07/27 05:17:13;;;;;;;9.17;8.67;;;;;;;16.61;66.15;92514.03;5058339;28;20194;-70
2023/07/27 05:19:38;;;;;;;10.10;9.43;;;;;;;16.48;67.29;92520.31;5047723;28;20257;-70
2023/07/27 05:22:04;;;;;;;8.67;8.27;;;;;;;16.42;66.69;92527.59;5048369;28;20197;-73
2023/07/27 05:24:29;;;;;;;9.47;8.97;;;;;;;16.43;66.60;92513.34;5047853;28;20190;-74
2023/07/27 05:26:54;;;;;;;8.93;8.53;;;;;;;16.51;67.28;92522.31;5034779;28;20213;-72
2023/07/27 05:29:20;;;;;;;9.60;9.10;;;;;;;16.66;66.01;92533.13;5048211;28;20182;-74
2023/07/27 05:31:47;;;;;;;9.37;8.93;;;;;;;16.47;64.26;92527.44;5044908;28;20226;-69
2023/07/27 05:34:12;;;;;;;9.87;9.07;;;;;;;16.69;63.67;92527.22;5037597;28;20217;-69
2023/07/27 05:36:38;;;;;;;9.90;9.30;;;;;;;16.91;62.86;92529.56;5051077;28;20226;-69
2023/07/27 05:39:03;;;;;;;9.97;9.47;;;;;;;17.00;62.78;92537.44;5050582;28;20194;-68
2023/07/27 05:41:29;;;;;;;9.87;9.27;;;;;;;16.72;62.89;92537.09;5044590;28;20231;-66
2023/07/27 05:43:55;;;;;;;8.97;8.57;;;;;;;17.07;63.52;92540.34;5047687;28;20265;-66
2023/07/27 05:46:20;;;;;;;9.60;9.03;;;;;;;17.04;63.61;92539.09;5085317;28;20214;-67
2023/07/27 05:48:46;;;;;;;10.53;9.93;;;;;;;16.91;63.56;92534.84;5045665;28;20191;-65
2023/07/27 05:51:11;;;;;;;9.37;8.67;;;;;;;17.27;62.39;92545.66;5026873;28;20246;-67
2023/07/27 05:53:37;;;;;;;9.57;8.97;;;;;;;17.35;60.12;92550.09;5026928;28;20214;-67
2023/07/27 05:56:02;;;;;;;8.73;8.33;;;;;;;17.25;59.51;92550.47;5038832;28;20223;-66
2023/07/27 05:58:28;;;;;;;9.57;8.97;;;;;;;17.23;59.20;92567.75;5057244;28;20178;-67
2023/07/27 06:01:03;;;;;;;8.57;8.17;;;;;;;17.42;58.26;92566.19;5042088;28;20248;-67
2023/07/27 06:03:30;;;;;;;10.03;9.40;;;;;;;16.88;58.77;92577.69;5043575;28;20206;-66
2023/07/27 06:05:55;;;;;;;8.83;8.43;;;;;;;16.82;59.58;92573.69;5042606;28;20230;-66
2023/07/27 06:08:21;;;;;;;9.40;8.70;;;;;;;16.73;60.77;92574.81;5051996;28;20186;-66
2023/07/27 06:10:46;;;;;;;9.53;8.90;;;;;;;16.76;60.35;92574.94;5042189;28;20230;-66
2023/07/27 06:13:11;;;;;;;9.03;8.63;;;;;;;16.32;58.22;92580.63;5039935;28;20888;-66
2023/07/27 06:15:37;;;;;;;9.40;8.63;;;;;;;16.43;58.55;92571.31;5044165;28;20237;-66
2023/07/27 06:18:02;;;;;;;8.93;8.43;;;;;;;16.71;57.33;92569.06;5040585;28;20206;-66
2023/07/27 06:20:28;;;;;;;9.33;8.87;;;;;;;16.70;58.03;92552.47;5050034;28;20256;-69
2023/07/27 06:22:53;;;;;;;9.20;8.70;;;;;;;16.59;56.61;92568.97;5075902;28;20185;-66
2023/07/27 06:25:18;;;;;;;10.03;9.43;;;;;;;16.63;56.82;92569.88;5038672;28;20231;-66
2023/07/27 06:27:44;;;;;;;8.70;8.17;;;;;;;16.56;55.75;92580.13;5044115;28;20201;-66
2023/07/27 06:30:12;;;;;;;9.00;8.47;;;;;;;16.58;55.53;92584.00;5048063;28;20894;-65
2023/07/27 06:32:37;;;;;;;8.27;7.87;;;;;;;17.53;53.27;92585.09;5046743;28;20236;-66
2023/07/27 06:35:03;;;;;;;8.53;8.13;;;;;;;18.63;49.87;92577.31;5049305;28;20230;-64
2023/07/27 06:37:28;;;;;;;14.47;13.50;;;;;;;21.62;42.96;92581.16;5039249;28;20183;-64
2023/07/27 06:39:54;;;;;;;8.70;8.10;;;;;;;22.12;42.68;92573.09;5042692;28;20237;-68
2023/07/27 06:42:19;;;;;;;9.13;8.43;;;;;;;21.22;43.47;92564.66;5038243;28;20252;-70
2023/07/27 06:44:45;;;;;;;8.40;8.00;;;;;;;19.63;47.43;92553.59;5042823;28;20223;-70
2023/07/27 06:47:10;;;;;;;7.53;7.23;;;;;;;19.47;46.71;92568.66;5051122;28;20191;-70
2023/07/27 06:49:36;;;;;;;8.33;7.80;;;;;;;18.30;49.89;92565.97;5050450;28;20184;-70
2023/07/27 06:52:01;;;;;;;8.73;8.23;;;;;;;18.98;48.19;92559.94;5038577;28;20176;-69
2023/07/27 06:54:26;;;;;;;8.70;8.23;;;;;;;19.28;48.52;92563.16;5044869;28;20238;-70
2023/07/27 06:56:52;;;;;;;8.73;8.00;;;;;;;19.32;48.28;92562.16;5048411;28;20281;-69
2023/07/27 06:59:18;;;;;;;8.33;7.83;;;;;;;19.39;47.98;92541.19;5050796;28;20224;-69
2023/07/27 07:01:43;;;;;;;9.10;8.37;;;;;;;19.58;48.32;92551.97;5048250;28;20263;-69
2023/07/27 07:04:08;;;;;;;8.77;8.33;;;;;;;19.48;48.02;92549.78;5049144;28;20195;-68
2023/07/27 07:06:34;;;;;;;8.27;7.87;;;;;;;19.72;47.14;92544.41;5044205;28;20238;-70
2023/07/27 07:08:59;;;;;;;7.93;7.43;;;;;;;19.57;45.68;92539.81;5044965;28;20188;-68
2023/07/27 07:11:24;;;;;;;8.70;8.30;;;;;;;19.66;47.29;92537.06;5050705;28;20210;-68
2023/07/27 07:13:50;;;;;;;11.07;9.00;;;;;;;19.12;47.35;92526.75;5047389;28;20236;-69
2023/07/27 07:16:15;;;;;;;8.60;8.10;;;;;;;19.07;47.69;92532.25;5039501;28;20238;-69
2023/07/27 07:18:41;;;;;;;7.80;7.40;;;;;;;19.18;47.69;92540.53;5046594;28;20183;-67
2023/07/27 07:21:06;;;;;;;9.80;9.30;;;;;;;19.03;46.39;92526.09;5048681;28;20724;-69
2023/07/27 07:23:32;;;;;;;10.00;9.17;;;;;;;19.42;48.14;92540.53;5046335;28;20188;-69
2023/07/27 07:25:57;;;;;;;9.17;8.40;;;;;;;19.49;47.55;92534.66;5049883;28;20226;-69
2023/07/27 07:28:23;;;;;;;8.50;8.00;;;;;;;19.04;47.71;92524.22;5049974;28;20211;-69
2023/07/27 07:30:48;;;;;;;8.50;7.77;;;;;;;19.00;48.41;92529.38;5049603;28;20346;-69
2023/07/27 07:33:14;;;;;;;7.80;7.40;;;;;;;19.15;48.76;92528.72;5050258;28;20211;-69
2023/07/27 07:35:40;;;;;;;7.77;7.37;;;;;;;19.24;48.84;92520.66;5049920;28;20227;-69
2023/07/27 07:38:06;;;;;;;8.27;7.80;;;;;;;19.07;48.33;92534.13;5050541;28;20200;-69
2023/07/27 07:40:32;;;;;;;8.43;7.83;;;;;;;18.80;49.87;92530.28;5050544;28;20239;-69
2023/07/27 07:42:58;;;;;;;8.33;7.90;;;;;;;19.36;50.22;92533.94;5083194;28;20210;-69
2023/07/27 07:45:23;;;;;;;8.60;8.10;;;;;;;19.67;48.29;92536.72;5049878;28;20215;-69
2023/07/27 07:47:48;;;;;;;7.83;7.50;;;;;;;19.48;47.56;92543.72;5050513;28;20199;-69
2023/07/27 07:50:14;;;;;;;8.33;7.90;;;;;;;19.64;46.64;92532.09;5049803;28;20235;-70
2023/07/27 07:52:39;;;;;;;7.83;7.27;;;;;;;20.00;46.18;92537.25;5050443;28;20279;-69
2023/07/27 07:55:06;;;;;;;7.93;7.43;;;;;;;20.01;46.02;92522.91;5051823;28;20292;-70
2023/07/27 07:57:32;;;;;;;9.10;8.60;;;;;;;20.19;46.41;92541.94;5055187;28;20251;-70
2023/07/27 07:59:58;;;;;;;8.60;8.00;;;;;;;19.38;46.90;92544.19;5057641;28;20236;-69
2023/07/27 08:02:23;;;;;;;8.60;8.03;;;;;;;19.52;47.91;92566.53;5055780;28;20224;-69
2023/07/27 08:04:49;;;;;;;9.23;8.60;;;;;;;19.58;46.25;92551.97;5052248;28;20272;-69
2023/07/27 08:07:14;;;;;;;8.10;7.50;;;;;;;19.67;46.97;92555.28;5052575;28;20211;-69
2023/07/27 08:09:39;;;;;;;8.07;7.63;;;;;;;19.74;47.49;92563.41;5050034;28;20183;-69
2023/07/27 08:12:06;;;;;;;7.97;7.47;;;;;;;19.17;47.36;92554.88;5053508;28;20191;-70
2023/07/27 08:14:31;;;;;;;8.43;7.90;;;;;;;19.31;47.93;92555.31;5049501;28;20193;-70
2023/07/27 08:16:57;;;;;;;8.20;7.70;;;;;;;19.25;47.22;92561.94;5061258;28;20187;-70
2023/07/27 08:19:22;;;;;;;8.23;7.83;;;;;;;19.61;48.26;92569.06;5058637;28;20196;-69
2023/07/27 08:21:47;;;;;;;8.73;8.07;;;;;;;19.19;48.90;92574.59;5050066;28;20321;-70
2023/07/27 08:24:13;;;;;;;7.90;7.50;;;;;;;19.36;48.65;92573.66;5050143;28;20196;-69
2023/07/27 08:26:38;;;;;;;8.17;7.67;;;;;;;19.80;48.18;92572.66;5050565;28;20254;-69
2023/07/27 08:29:03;;;;;;;9.23;8.50;;;;;;;19.79;47.41;92549.16;5046413;28;20272;-69
2023/07/27 08:31:29;;;;;;;7.70;7.20;;;;;;;19.57;46.48;92563.66;5048760;28;20224;-69
2023/07/27 08:33:55;;;;;;;8.73;7.13;;;;;;;19.86;46.95;92573.97;5048561;28;20249;-70
2023/07/27 08:36:20;;;;;;;11.03;7.97;;;;;;;19.49;47.34;92582.31;5030166;28;20234;-70
2023/07/27 08:38:45;;;;;;;7.97;7.57;;;;;;;19.77;47.34;92588.44;5032738;28;20196;-70
2023/07/27 08:41:11;;;;;;;7.97;7.57;;;;;;;19.82;46.79;92594.31;5039013;28;20243;-70
2023/07/27 08:43:36;;;;;;;7.30;7.00;;;;;;;20.24;46.58;92592.88;5047943;28;20184;-70
2023/07/27 08:46:03;;;;;;;7.47;7.13;;;;;;;20.33;47.15;92601.44;5049679;28;20233;-69
2023/07/27 08:48:29;;;;;;;8.83;7.97;;;;;;;19.94;44.93;92591.63;5048526;28;20236;-69
2023/07/27 08:50:57;;;;;;;7.23;6.73;;;;;;;19.67;46.58;92592.34;5054074;28;20234;-69
2023/07/27 08:53:22;;;;;;;7.83;7.43;;;;;;;19.82;46.76;92607.56;5044356;28;20208;-69
2023/07/27 08:55:48;;;;;;;7.87;7.37;;;;;;;20.20;46.76;92597.28;5047970;28;20244;-69
2023/07/27 08:58:14;;;;;;;8.07;7.47;;;;;;;19.70;45.47;92591.69;5044282;28;20192;-69
2023/07/27 09:00:39;;;;;;;8.43;7.70;;;;;;;19.38;45.64;92584.66;5043109;28;20246;-69
2023/07/27 09:03:07;;;;;;;7.90;7.57;;;;;;;19.43;46.20;92610.91;5056016;28;20196;-69
2023/07/27 09:05:39;;;;;;;9.20;7.17;;;;;;;19.60;48.26;92578.09;5045531;28;20219;-69
2023/07/27 09:08:09;;;;;;;7.50;7.00;;;;;;;20.10;47.03;92589.03;5046495;28;20267;-68
2023/07/27 09:10:36;;;;;;;8.73;7.80;;;;;;;20.60;46.46;92583.97;5044912;28;20214;-70
2023/07/27 09:13:03;;;;;;;7.90;7.40;;;;;;;20.36;45.20;92571.59;5042708;28;20216;-69
2023/07/27 09:15:28;;;;;;;9.00;8.10;;;;;;;20.46;47.09;92581.72;5040066;28;20228;-70
2023/07/27 09:17:58;;;;;;;7.60;7.23;;;;;;;20.72;48.04;92572.53;5048467;28;20230;-70
2023/07/27 09:20:24;;;;;;;7.30;6.90;;;;;;;20.72;45.30;92583.13;5049122;28;20226;-70
2023/07/27 09:22:50;;;;;;;8.03;7.43;;;;;;;20.27;46.67;92594.84;5044962;28;20193;-70
2023/07/27 09:25:23;;;;;;;8.33;7.83;;;;;;;19.69;46.08;92584.06;5038671;28;20236;-70
2023/07/27 09:27:55;;;;;;;10.93;6.60;;;;;;;19.65;46.28;92597.22;5047771;28;20192;-69
2023/07/27 09:30:23;;;;;;;7.30;6.70;;;;;;;19.68;46.46;92583.28;5044217;28;20236;-69
2023/07/27 09:32:49;;;;;;;7.47;6.97;;;;;;;20.12;47.61;92603.50;5046425;28;20253;-69
2023/07/27 09:35:16;;;;;;;7.03;6.73;;;;;;;20.39;45.57;92592.13;5044902;28;20235;-69
2023/07/27 09:37:47;;;;;;;7.50;7.10;;;;;;;19.99;47.74;92601.97;5084216;28;20192;-69
2023/07/27 09:40:15;;;;;;;7.63;7.23;;;;;;;19.86;45.78;92597.06;5056566;28;20226;-68
2023/07/27 09:42:43;;;;;;;8.23;7.10;;;;;;;19.81;46.56;92590.13;5062953;28;20190;-67
2023/07/27 09:45:09;;;;;;;8.60;8.00;;;;;;;19.81;46.53;92594.63;5046360;28;20235;-67
2023/07/27 09:47:35;;;;;;;7.63;7.13;;;;;;;19.85;46.58;92590.19;5047282;28;20191;-67
2023/07/27 09:50:01;;;;;;;8.33;7.63;;;;;;;20.17;48.66;92603.28;5047182;28;20258;-68
2023/07/27 09:52:28;;;;;;;7.80;7.40;;;;;;;20.25;45.60;92597.06;5048478;28;20253;-66
2023/07/27 09:54:58;;;;;;;8.13;7.73;;;;;;;20.06;44.11;92602.16;5074994;28;20316;-69
2023/07/27 09:57:25;;;;;;;8.40;7.77;;;;;;;19.92;44.27;92603.66;5027564;28;20192;-69
2023/07/27 09:59:51;;;;;;;7.67;7.17;;;;;;;19.79;45.03;92600.28;5017704;28;20241;-68
2023/07/27 10:02:18;;;;;;;7.70;7.30;;;;;;;20.19;46.78;92597.63;5022491;28;20272;-69
2023/07/27 10:04:51;;;;;;;9.43;7.30;;;;;;;20.56;45.92;92589.19;5027175;28;20222;-69
2023/07/27 10:07:18;;;;;;;7.53;7.13;;;;;;;20.20;44.97;92592.00;5047162;28;20198;-68
2023/07/27 10:09:45;;;;;;;7.73;7.03;;;;;;;20.13;44.99;92612.19;5048957;28;20197;-68
2023/07/27 10:12:10;;;;;;;7.70;7.10;;;;;;;20.22;45.55;92608.34;5048396;28;20194;-70
2023/07/27 10:14:38;;;;;;;7.23;6.83;;;;;;;20.07;42.92;92613.56;5047181;28;20184;-69
2023/07/27 10:17:07;;;;;;;7.10;6.73;;;;;;;20.04;43.58;92607.06;5047884;28;20280;-68
2023/07/27 10:19:40;;;;;;;8.43;7.80;;;;;;;19.84;44.49;92593.97;5046874;28;20188;-69
2023/07/27 10:22:16;;;;;;;8.67;8.03;;;;;;;20.10;44.00;92613.66;5048839;28;20216;-68
2023/07/27 10:24:51;;;;;;;7.73;7.07;;;;;;;20.35;43.07;92603.75;5051004;28;20186;-67
2023/07/27 10:27:21;;;;;;;8.23;7.57;;;;;;;20.54;43.79;92612.63;5042928;28;20279;-68
2023/07/27 10:30:10;;;;;;;7.57;7.17;;;;;;;20.24;42.79;92595.53;5048744;28;20232;-68
2023/07/27 10:32:36;;;;;;;10.03;7.67;;;;;;;20.40;42.92;92599.00;5047160;28;20263;-68
2023/07/27 10:35:06;;;;;;;8.23;7.63;;;;;;;20.23;43.07;92595.88;5047617;28;20240;-69
2023/07/27 10:37:54;;;;;;;7.47;7.07;;;;;;;20.36;42.62;92602.63;5049494;28;20185;-68
2023/07/27 10:40:29;;;;;;;8.40;8.00;;;;;;;20.23;42.02;92595.88;5046251;28;20290;-68
2023/07/27 10:42:56;;;;;;;7.47;7.18;;;;;;;20.18;41.54;92604.06;5037216;28;20192;-68
2023/07/27 10:45:26;;;;;;;8.20;7.67;;;;;;;20.47;42.38;92604.47;5044513;28;20224;-68
2023/07/27 10:47:56;;;;;;;8.30;7.87;;;;;;;20.16;41.81;92599.09;5040808;28;20177;-67
2023/07/27 10:50:21;;;;;;;8.80;8.03;;;;;;;20.39;41.34;92599.31;5041040;28;20237;-68
2023/07/27 10:52:51;;;;;;;8.13;7.77;;;;;;;20.30;41.70;92606.66;5090005;28;20254;-68
2023/07/27 10:55:17;;;;;;;8.77;8.13;;;;;;;20.47;40.23;92593.09;5050260;28;20221;-67
2023/07/27 10:57:43;;;;;;;7.80;7.40;;;;;;;20.68;40.19;92586.44;5044226;28;20197;-68
2023/07/27 11:00:09;;;;;;;8.77;8.20;;;;;;;20.58;40.13;92573.69;5044456;28;20243;-68
2023/07/27 11:02:36;;;;;;;8.40;7.70;;;;;;;20.43;41.79;92585.06;5057881;28;20241;-67
2023/07/27 11:05:07;;;;;;;8.77;8.27;;;;;;;20.83;41.41;92578.84;5039336;28;20303;-68
2023/07/27 11:07:35;;;;;;;9.10;7.90;;;;;;;20.66;41.02;92582.59;5051352;28;20200;-68
2023/07/27 11:10:06;;;;;;;8.80;8.40;;;;;;;21.02;42.36;92589.59;5048703;28;20234;-67
2023/07/27 11:12:32;;;;;;;8.60;7.87;;;;;;;20.78;40.96;92582.53;5037405;28;20209;-67
2023/07/27 11:15:21;;;;;;;8.50;8.00;;;;;;;20.80;40.69;92587.50;5052936;28;20258;-67
2023/07/27 11:17:53;;;;;;;9.93;8.80;;;;;;;20.95;40.94;92573.47;5042268;28;20187;-68
2023/07/27 11:20:20;;;;;;;12.10;9.00;;;;;;;20.85;40.74;92576.63;5042317;28;20241;-66
2023/07/27 11:22:47;;;;;;;8.73;7.77;;;;;;;20.90;40.00;92581.69;5045343;28;20181;-67
2023/07/27 11:25:12;;;;;;;8.43;8.00;;;;;;;20.85;39.98;92573.97;5047330;28;20295;-68
2023/07/27 11:27:38;;;;;;;8.73;8.00;;;;;;;20.48;39.92;92570.78;5039069;28;20173;-68
2023/07/27 11:30:06;;;;;;;8.77;8.10;;;;;;;20.90;40.04;92555.16;5046502;28;20233;-69
2023/07/27 11:32:32;;;;;;;8.65;8.18;;;;;;;21.01;39.28;92572.13;5043781;28;20227;-68